createdAt,value
2018-11-01T00:00:08.775Z,1003.86
2018-11-01T00:01:08.756Z,1003.89
2018-11-01T00:02:08.750Z,1003.89
2018-11-01T00:03:08.729Z,1003.85
2018-11-01T00:04:08.712Z,1003.82
2018-11-01T00:05:08.693Z,1003.8
2018-11-01T00:06:08.679Z,1003.8
2018-11-01T00:07:08.662Z,1003.81
2018-11-01T00:08:08.659Z,1003.75
2018-11-01T00:09:08.627Z,1003.73
2018-11-01T00:10:08.611Z,1003.72
2018-11-01T00:11:08.596Z,1003.75
2018-11-01T00:12:08.577Z,1003.7
2018-11-01T00:13:08.763Z,1003.72
2018-11-01T00:14:08.545Z,1003.74
2018-11-01T00:15:08.527Z,1003.73
2018-11-01T00:16:08.520Z,1003.71
2018-11-01T00:17:08.494Z,1003.66
2018-11-01T00:18:08.482Z,1003.67
2018-11-01T00:19:08.461Z,1003.65
2018-11-01T00:20:08.448Z,1003.63
2018-11-01T00:21:08.430Z,1003.67
2018-11-01T00:22:08.415Z,1003.65
2018-11-01T00:23:08.396Z,1003.63
2018-11-01T00:24:08.380Z,1003.62
2018-11-01T00:25:08.363Z,1003.63
2018-11-01T00:26:08.349Z,1003.68
2018-11-01T00:27:08.330Z,1003.67
2018-11-01T00:28:08.314Z,1003.68
2018-11-01T00:29:08.298Z,1003.7
2018-11-01T00:30:08.283Z,1003.7
2018-11-01T00:31:08.264Z,1003.67
2018-11-01T00:32:08.247Z,1003.73
2018-11-01T00:33:08.232Z,1003.7
2018-11-01T00:34:08.216Z,1003.7
2018-11-01T00:35:08.198Z,1003.65
2018-11-01T00:36:08.183Z,1003.7
2018-11-01T00:37:08.211Z,1003.66
2018-11-01T00:38:08.148Z,1003.66
2018-11-01T00:39:08.136Z,1003.65
2018-11-01T00:40:08.116Z,1003.7
2018-11-01T00:41:08.099Z,1003.76
2018-11-01T00:42:08.084Z,1003.74
2018-11-01T00:43:08.068Z,1003.76
2018-11-01T00:44:08.054Z,1003.82
2018-11-01T00:45:08.036Z,1003.8
2018-11-01T00:46:08.019Z,1003.84
2018-11-01T00:47:08.007Z,1003.76
2018-11-01T00:48:07.988Z,1003.76
2018-11-01T00:49:07.969Z,1003.75
2018-11-01T00:50:07.952Z,1003.7
2018-11-01T00:51:07.932Z,1003.69
2018-11-01T00:52:07.917Z,1003.66
2018-11-01T00:53:07.905Z,1003.63
2018-11-01T00:54:07.887Z,1003.64
2018-11-01T00:55:07.867Z,1003.66
2018-11-01T00:56:07.852Z,1003.69
2018-11-01T00:57:07.835Z,1003.66
2018-11-01T00:58:07.818Z,1003.7
2018-11-01T00:59:07.802Z,1003.72
2018-11-01T01:00:07.793Z,1003.65
2018-11-01T01:01:07.768Z,1003.68
2018-11-01T01:02:07.753Z,1003.69
2018-11-01T01:03:07.737Z,1003.7
2018-11-01T01:04:07.719Z,1003.69
2018-11-01T01:05:07.705Z,1003.69
2018-11-01T01:06:07.685Z,1003.76
2018-11-01T01:07:07.668Z,1003.75
2018-11-01T01:08:07.651Z,1003.76
2018-11-01T01:09:07.651Z,1003.74
2018-11-01T01:10:07.620Z,1003.72
2018-11-01T01:11:07.602Z,1003.71
2018-11-01T01:12:07.590Z,1003.67
2018-11-01T01:13:07.573Z,1003.72
2018-11-01T01:14:07.552Z,1003.73
2018-11-01T01:15:07.537Z,1003.67
2018-11-01T01:16:07.520Z,1003.66
2018-11-01T01:17:07.503Z,1003.64
2018-11-01T01:18:07.489Z,1003.62
2018-11-01T01:19:07.659Z,1003.6
2018-11-01T01:20:07.453Z,1003.57
2018-11-01T01:21:07.439Z,1003.58
2018-11-01T01:22:07.418Z,1003.56
2018-11-01T01:23:07.606Z,1003.56
2018-11-01T01:24:07.385Z,1003.57
2018-11-01T01:25:07.368Z,1003.62
2018-11-01T01:26:07.352Z,1003.63
2018-11-01T01:27:07.335Z,1003.59
2018-11-01T01:28:07.320Z,1003.57
2018-11-01T01:29:07.315Z,1003.56
2018-11-01T01:30:07.286Z,1003.51
2018-11-01T01:31:07.270Z,1003.53
2018-11-01T01:32:07.253Z,1003.6
2018-11-01T01:33:07.237Z,1003.62
2018-11-01T01:34:07.222Z,1003.62
2018-11-01T01:35:07.201Z,1003.56
2018-11-01T01:36:07.187Z,1003.61
2018-11-01T01:37:07.168Z,1003.6
2018-11-01T01:38:07.158Z,1003.58
2018-11-01T01:39:07.134Z,1003.59
2018-11-01T01:40:07.116Z,1003.58
2018-11-01T01:41:07.102Z,1003.54
2018-11-01T01:42:07.084Z,1003.51
2018-11-01T01:43:07.072Z,1003.51
2018-11-01T01:44:07.052Z,1003.51
2018-11-01T01:45:07.035Z,1003.49
2018-11-01T01:46:07.018Z,1003.48
2018-11-01T01:47:07.008Z,1003.49
2018-11-01T01:48:06.989Z,1003.46
2018-11-01T01:49:06.967Z,1003.47
2018-11-01T01:50:06.950Z,1003.46
2018-11-01T01:51:06.938Z,1003.5
2018-11-01T01:52:06.917Z,1003.5
2018-11-01T01:53:06.903Z,1003.54
2018-11-01T01:54:06.885Z,1003.53
2018-11-01T01:55:06.871Z,1003.58
2018-11-01T01:56:06.852Z,1003.56
2018-11-01T01:57:06.834Z,1003.6
2018-11-01T01:58:06.817Z,1003.53
2018-11-01T01:59:06.800Z,1003.57
2018-11-01T02:00:06.786Z,1003.54
2018-11-01T02:01:06.765Z,1003.51
2018-11-01T02:02:06.752Z,1003.5
2018-11-01T02:03:06.735Z,1003.47
2018-11-01T02:04:06.714Z,1003.46
2018-11-01T02:05:06.701Z,1003.45
2018-11-01T02:06:06.685Z,1003.45
2018-11-01T02:07:06.669Z,1003.47
2018-11-01T02:08:06.650Z,1003.46
2018-11-01T02:09:06.637Z,1003.42
2018-11-01T02:10:06.617Z,1003.44
2018-11-01T02:11:06.600Z,1003.48
2018-11-01T02:12:06.583Z,1003.45
2018-11-01T02:13:06.769Z,1003.44
2018-11-01T02:14:06.553Z,1003.41
2018-11-01T02:15:06.535Z,1003.4
2018-11-01T02:16:06.518Z,1003.35
2018-11-01T02:17:06.500Z,1003.44
2018-11-01T02:18:06.482Z,1003.37
2018-11-01T02:19:06.466Z,1003.37
2018-11-01T02:20:06.454Z,1003.37
2018-11-01T02:21:06.436Z,1003.37
2018-11-01T02:22:06.419Z,1003.33
2018-11-01T02:23:06.398Z,1003.36
2018-11-01T02:24:06.386Z,1003.33
2018-11-01T02:25:06.366Z,1003.29
2018-11-01T02:26:06.349Z,1003.31
2018-11-01T02:27:06.333Z,1003.28
2018-11-01T02:28:06.322Z,1003.27
2018-11-01T02:29:06.299Z,1003.28
2018-11-01T02:30:06.282Z,1003.34
2018-11-01T02:31:06.269Z,1003.36
2018-11-01T02:32:06.252Z,1003.37
2018-11-01T02:33:06.235Z,1003.35
2018-11-01T02:34:06.216Z,1003.35
2018-11-01T02:35:06.200Z,1003.34
2018-11-01T02:36:06.183Z,1003.29
2018-11-01T02:37:06.164Z,1003.27
2018-11-01T02:38:06.390Z,1003.23
2018-11-01T02:39:06.133Z,1003.25
2018-11-01T02:40:06.121Z,1003.17
2018-11-01T02:41:06.100Z,1003.17
2018-11-01T02:42:06.083Z,1003.14
2018-11-01T02:43:06.064Z,1003.11
2018-11-01T02:44:06.065Z,1003.12
2018-11-01T02:45:06.031Z,1003.09
2018-11-01T02:46:06.013Z,1003.11
2018-11-01T02:47:05.997Z,1003.05
2018-11-01T02:48:05.980Z,1003.07
2018-11-01T02:49:05.965Z,1003.11
2018-11-01T02:50:05.950Z,1003.08
2018-11-01T02:51:05.928Z,1003.04
2018-11-01T02:52:05.913Z,1003.03
2018-11-01T02:53:05.899Z,1003.02
2018-11-01T02:54:05.881Z,1002.98
2018-11-01T02:55:05.868Z,1003
2018-11-01T02:56:05.845Z,1002.97
2018-11-01T02:57:05.833Z,1002.99
2018-11-01T02:58:05.811Z,1002.93
2018-11-01T02:59:05.794Z,1002.98
2018-11-01T03:00:05.782Z,1002.96
2018-11-01T03:01:05.794Z,1002.99
2018-11-01T03:02:05.744Z,1002.97
2018-11-01T03:03:05.730Z,1003.03
2018-11-01T03:04:05.709Z,1003.1
2018-11-01T03:05:05.693Z,1003.08
2018-11-01T03:06:05.677Z,1003.11
2018-11-01T03:07:05.660Z,1003.13
2018-11-01T03:08:05.642Z,1003.1
2018-11-01T03:09:05.623Z,1003.14
2018-11-01T03:10:05.612Z,1003.12
2018-11-01T03:11:05.593Z,1003.08
2018-11-01T03:12:05.573Z,1003.11
2018-11-01T03:13:05.557Z,1003.12
2018-11-01T03:14:05.536Z,1003.1
2018-11-01T03:15:05.521Z,1003.07
2018-11-01T03:16:05.503Z,1003.04
2018-11-01T03:17:05.501Z,1002.99
2018-11-01T03:18:05.470Z,1002.93
2018-11-01T03:19:05.459Z,1002.95
2018-11-01T03:20:05.437Z,1002.86
2018-11-01T03:21:05.425Z,1002.8
2018-11-01T03:22:05.402Z,1002.7
2018-11-01T03:23:05.381Z,1002.67
2018-11-01T03:24:05.369Z,1002.64
2018-11-01T03:25:05.349Z,1002.62
2018-11-01T03:26:05.331Z,1002.59
2018-11-01T03:27:05.315Z,1002.64
2018-11-01T03:28:05.302Z,1002.62
2018-11-01T03:29:05.279Z,1002.63
2018-11-01T03:30:05.263Z,1002.7
2018-11-01T03:31:05.259Z,1002.64
2018-11-01T03:32:05.227Z,1002.68
2018-11-01T03:33:05.211Z,1002.71
2018-11-01T03:34:05.196Z,1002.73
2018-11-01T03:35:05.176Z,1002.71
2018-11-01T03:36:05.157Z,1002.69
2018-11-01T03:37:05.139Z,1002.73
2018-11-01T03:38:05.129Z,1002.73
2018-11-01T03:39:05.286Z,1002.72
2018-11-01T03:40:05.086Z,1002.76
2018-11-01T03:41:05.070Z,1002.75
2018-11-01T03:42:05.050Z,1002.76
2018-11-01T03:43:05.038Z,1002.78
2018-11-01T03:44:05.017Z,1002.81
2018-11-01T03:45:04.999Z,1002.82
2018-11-01T03:46:04.982Z,1002.81
2018-11-01T03:47:04.961Z,1002.8
2018-11-01T03:48:04.944Z,1002.74
2018-11-01T03:49:04.929Z,1002.7
2018-11-01T03:50:04.912Z,1002.66
2018-11-01T03:51:04.895Z,1002.65
2018-11-01T03:52:04.975Z,1002.65
2018-11-01T03:53:04.858Z,1002.67
2018-11-01T03:54:04.843Z,1002.62
2018-11-01T03:55:04.824Z,1002.65
2018-11-01T03:56:04.805Z,1002.64
2018-11-01T03:57:04.792Z,1002.68
2018-11-01T03:58:04.768Z,1002.72
2018-11-01T03:59:04.749Z,1002.73
2018-11-01T04:00:04.736Z,1002.76
2018-11-01T04:01:04.714Z,1002.79
2018-11-01T04:02:04.695Z,1002.77
2018-11-01T04:03:04.684Z,1002.75
2018-11-01T04:04:04.661Z,1002.74
2018-11-01T04:05:04.644Z,1002.72
2018-11-01T04:06:04.630Z,1002.76
2018-11-01T04:07:04.606Z,1002.78
2018-11-01T04:08:04.605Z,1002.8
2018-11-01T04:09:04.571Z,1002.76
2018-11-01T04:10:04.551Z,1002.69
2018-11-01T04:11:04.535Z,1002.65
2018-11-01T04:12:04.515Z,1002.61
2018-11-01T04:13:04.702Z,1002.58
2018-11-01T04:14:04.483Z,1002.66
2018-11-01T04:15:04.564Z,1002.7
2018-11-01T04:16:04.444Z,1002.61
2018-11-01T04:17:04.618Z,1002.63
2018-11-01T04:18:04.408Z,1002.62
2018-11-01T04:19:04.391Z,1002.55
2018-11-01T04:20:04.370Z,1002.52
2018-11-01T04:21:04.354Z,1002.51
2018-11-01T04:22:04.336Z,1002.53
2018-11-01T04:23:04.345Z,1002.5
2018-11-01T04:24:04.297Z,1002.52
2018-11-01T04:25:04.289Z,1002.5
2018-11-01T04:26:04.267Z,1002.45
2018-11-01T04:27:04.244Z,1002.47
2018-11-01T04:28:04.225Z,1002.51
2018-11-01T04:29:04.242Z,1002.47
2018-11-01T04:30:04.195Z,1002.46
2018-11-01T04:31:04.180Z,1002.43
2018-11-01T04:32:04.153Z,1002.43
2018-11-01T04:33:04.149Z,1002.43
2018-11-01T04:34:04.118Z,1002.45
2018-11-01T04:35:04.101Z,1002.42
2018-11-01T04:36:04.114Z,1002.4
2018-11-01T04:37:04.062Z,1002.37
2018-11-01T04:38:04.051Z,1002.36
2018-11-01T04:39:04.026Z,1002.38
2018-11-01T04:40:04.008Z,1002.39
2018-11-01T04:41:03.990Z,1002.34
2018-11-01T04:42:03.970Z,1002.35
2018-11-01T04:43:03.985Z,1002.32
2018-11-01T04:44:03.999Z,1002.28
2018-11-01T04:45:03.945Z,1002.24
2018-11-01T04:46:03.908Z,1002.24
2018-11-01T04:47:03.924Z,1002.19
2018-11-01T04:48:04.031Z,1002.21
2018-11-01T04:49:03.842Z,1002.19
2018-11-01T04:50:03.823Z,1002.19
2018-11-01T04:51:03.810Z,1002.16
2018-11-01T04:52:03.788Z,1002.22
2018-11-01T04:53:03.774Z,1002.2
2018-11-01T04:54:03.753Z,1002.15
2018-11-01T04:55:03.736Z,1002.17
2018-11-01T04:56:03.716Z,1002.2
2018-11-01T04:57:03.696Z,1002.23
2018-11-01T04:58:03.690Z,1002.21
2018-11-01T04:59:03.660Z,1002.26
2018-11-01T05:00:03.644Z,1002.29
2018-11-01T05:01:03.627Z,1002.29
2018-11-01T05:02:03.606Z,1002.36
2018-11-01T05:03:03.589Z,1002.39
2018-11-01T05:04:03.571Z,1002.43
2018-11-01T05:05:03.579Z,1002.46
2018-11-01T05:06:03.534Z,1002.51
2018-11-01T05:07:03.514Z,1002.5
2018-11-01T05:08:03.512Z,1002.49
2018-11-01T05:09:03.496Z,1002.51
2018-11-01T05:10:03.461Z,1002.49
2018-11-01T05:11:03.439Z,1002.51
2018-11-01T05:12:03.424Z,1002.47
2018-11-01T05:13:03.405Z,1002.46
2018-11-01T05:14:03.389Z,1002.47
2018-11-01T05:15:03.433Z,1002.44
2018-11-01T05:16:03.348Z,1002.4
2018-11-01T05:17:03.329Z,1002.37
2018-11-01T05:18:03.311Z,1002.4
2018-11-01T05:19:03.290Z,1002.35
2018-11-01T05:20:03.319Z,1002.41
2018-11-01T05:21:03.259Z,1002.43
2018-11-01T05:22:03.239Z,1002.42
2018-11-01T05:23:03.217Z,1002.41
2018-11-01T05:24:03.205Z,1002.41
2018-11-01T05:25:03.181Z,1002.38
2018-11-01T05:26:03.281Z,1002.42
2018-11-01T05:27:03.153Z,1002.41
2018-11-01T05:28:03.127Z,1002.44
2018-11-01T05:29:03.108Z,1002.41
2018-11-01T05:30:03.091Z,1002.38
2018-11-01T05:31:03.070Z,1002.38
2018-11-01T05:32:03.054Z,1002.36
2018-11-01T05:33:03.034Z,1002.33
2018-11-01T05:34:03.015Z,1002.33
2018-11-01T05:35:02.998Z,1002.32
2018-11-01T05:36:02.977Z,1002.31
2018-11-01T05:37:02.958Z,1002.26
2018-11-01T05:38:02.983Z,1002.28
2018-11-01T05:39:02.922Z,1002.23
2018-11-01T05:40:02.905Z,1002.18
2018-11-01T05:41:02.889Z,1002.16
2018-11-01T05:42:02.883Z,1002.14
2018-11-01T05:43:02.848Z,1002.08
2018-11-01T05:44:02.832Z,1002.1
2018-11-01T05:45:02.813Z,1002.05
2018-11-01T05:46:02.793Z,1002.05
2018-11-01T05:47:02.775Z,1002.03
2018-11-01T05:48:02.787Z,1002.07
2018-11-01T05:49:02.739Z,1002.07
2018-11-01T05:50:02.731Z,1002.1
2018-11-01T05:51:02.777Z,1002.08
2018-11-01T05:52:02.834Z,1002.1
2018-11-01T05:53:02.673Z,1002.14
2018-11-01T05:54:02.741Z,1002.12
2018-11-01T05:55:03.048Z,1002.12
2018-11-01T05:56:02.709Z,1002.06
2018-11-01T05:57:02.593Z,1002.13
2018-11-01T05:58:02.569Z,1002.12
2018-11-01T05:59:02.557Z,1002.2
2018-11-01T06:00:02.657Z,1002.25
2018-11-01T06:01:02.516Z,1002.24
2018-11-01T06:02:02.492Z,1002.28
2018-11-01T06:03:02.474Z,1002.3
2018-11-01T06:04:02.461Z,1002.34
2018-11-01T06:05:02.444Z,1002.36
2018-11-01T06:06:02.417Z,1002.38
2018-11-01T06:07:02.402Z,1002.37
2018-11-01T06:08:02.383Z,1002.41
2018-11-01T06:09:02.376Z,1002.43
2018-11-01T06:10:02.343Z,1002.46
2018-11-01T06:11:02.328Z,1002.5
2018-11-01T06:12:02.307Z,1002.53
2018-11-01T06:13:02.495Z,1002.53
2018-11-01T06:14:02.267Z,1002.51
2018-11-01T06:15:02.251Z,1002.53
2018-11-01T06:16:02.231Z,1002.54
2018-11-01T06:17:02.214Z,1002.52
2018-11-01T06:18:02.196Z,1002.52
2018-11-01T06:19:02.190Z,1002.54
2018-11-01T06:20:02.154Z,1002.53
2018-11-01T06:21:02.136Z,1002.49
2018-11-01T06:22:02.119Z,1002.53
2018-11-01T06:23:02.106Z,1002.47
2018-11-01T06:24:02.079Z,1002.51
2018-11-01T06:25:02.062Z,1002.5
2018-11-01T06:26:02.045Z,1002.48
2018-11-01T06:27:02.026Z,1002.48
2018-11-01T06:28:02.005Z,1002.46
2018-11-01T06:29:01.991Z,1002.47
2018-11-01T06:30:01.968Z,1002.5
2018-11-01T06:31:01.952Z,1002.51
2018-11-01T06:32:01.931Z,1002.54
2018-11-01T06:33:01.914Z,1002.51
2018-11-01T06:34:01.894Z,1002.51
2018-11-01T06:35:01.877Z,1002.46
2018-11-01T06:36:01.858Z,1002.46
2018-11-01T06:37:01.838Z,1002.45
2018-11-01T06:38:01.819Z,1002.46
2018-11-01T06:39:01.800Z,1002.49
2018-11-01T06:40:01.782Z,1002.52
2018-11-01T06:41:01.764Z,1002.51
2018-11-01T06:42:01.750Z,1002.53
2018-11-01T06:43:01.723Z,1002.48
2018-11-01T06:44:01.704Z,1002.48
2018-11-01T06:45:01.709Z,1002.49
2018-11-01T06:46:01.671Z,1002.48
2018-11-01T06:47:01.649Z,1002.48
2018-11-01T06:48:01.632Z,1002.46
2018-11-01T06:49:01.609Z,1002.49
2018-11-01T06:50:01.633Z,1002.45
2018-11-01T06:51:01.574Z,1002.5
2018-11-01T06:52:01.558Z,1002.49
2018-11-01T06:53:01.535Z,1002.54
2018-11-01T06:54:01.518Z,1002.52
2018-11-01T06:55:01.498Z,1002.51
2018-11-01T06:56:01.478Z,1002.53
2018-11-01T06:57:01.464Z,1002.55
2018-11-01T06:58:01.443Z,1002.56
2018-11-01T06:59:01.560Z,1002.54
2018-11-01T07:00:01.402Z,1002.55
2018-11-01T07:01:01.385Z,1002.54
2018-11-01T07:02:01.369Z,1002.53
2018-11-01T07:03:01.346Z,1002.51
2018-11-01T07:04:01.327Z,1002.56
2018-11-01T07:05:01.308Z,1002.52
2018-11-01T07:06:01.288Z,1002.54
2018-11-01T07:07:01.275Z,1002.47
2018-11-01T07:08:01.251Z,1002.48
2018-11-01T07:09:01.233Z,1002.51
2018-11-01T07:10:01.215Z,1002.49
2018-11-01T07:11:01.194Z,1002.48
2018-11-01T07:12:01.178Z,1002.46
2018-11-01T07:13:01.175Z,1002.5
2018-11-01T07:14:01.142Z,1002.53
2018-11-01T07:15:01.117Z,1002.54
2018-11-01T07:16:01.104Z,1002.58
2018-11-01T07:17:01.343Z,1002.58
2018-11-01T07:18:01.065Z,1002.58
2018-11-01T07:19:01.047Z,1002.53
2018-11-01T07:20:01.024Z,1002.59
2018-11-01T07:21:01.006Z,1002.58
2018-11-01T07:22:00.987Z,1002.53
2018-11-01T07:23:00.968Z,1002.53
2018-11-01T07:24:00.991Z,1002.53
2018-11-01T07:25:00.932Z,1002.49
2018-11-01T07:26:01.110Z,1002.44
2018-11-01T07:27:00.891Z,1002.41
2018-11-01T07:28:00.873Z,1002.42
2018-11-01T07:29:00.864Z,1002.46
2018-11-01T07:30:00.836Z,1002.44
2018-11-01T07:31:00.819Z,1002.4
2018-11-01T07:32:00.799Z,1002.39
2018-11-01T07:33:00.819Z,1002.32
2018-11-01T07:34:00.763Z,1002.32
2018-11-01T07:35:00.742Z,1002.32
2018-11-01T07:36:00.729Z,1002.31
2018-11-01T07:37:00.708Z,1002.34
2018-11-01T07:38:00.687Z,1002.38
2018-11-01T07:39:00.669Z,1002.35
2018-11-01T07:40:00.710Z,1002.38
2018-11-01T07:41:00.636Z,1002.37
2018-11-01T07:42:00.617Z,1002.37
2018-11-01T07:43:00.597Z,1002.36
2018-11-01T07:44:00.575Z,1002.34
2018-11-01T07:45:00.556Z,1002.33
2018-11-01T07:46:00.538Z,1002.28
2018-11-01T07:47:00.522Z,1002.27
2018-11-01T07:48:00.546Z,1002.2
2018-11-01T07:49:00.489Z,1002.2
2018-11-01T07:50:00.466Z,1002.23
2018-11-01T07:51:00.448Z,1002.25
2018-11-01T07:52:00.428Z,1002.24
2018-11-01T07:53:00.518Z,1002.26
2018-11-01T07:54:00.395Z,1002.18
2018-11-01T07:55:00.373Z,1002.19
2018-11-01T07:56:00.356Z,1002.18
2018-11-01T07:57:00.335Z,1002.23
2018-11-01T07:58:00.317Z,1002.23
2018-11-01T07:59:00.300Z,1002.24
2018-11-01T08:00:00.281Z,1002.2
2018-11-01T08:01:00.264Z,1002.19
2018-11-01T08:02:00.249Z,1002.21
2018-11-01T08:03:00.231Z,1002.16
2018-11-01T08:04:00.211Z,1002.23
2018-11-01T08:05:00.192Z,1002.21
2018-11-01T08:06:00.292Z,1002.21
2018-11-01T08:07:00.162Z,1002.19
2018-11-01T08:08:00.137Z,1002.16
2018-11-01T08:09:00.120Z,1002.21
2018-11-01T08:10:00.107Z,1002.17
2018-11-01T08:11:00.089Z,1002.13
2018-11-01T08:12:00.068Z,1002.22
2018-11-01T08:13:00.254Z,1002.21
2018-11-01T08:14:00.035Z,1002.2
2018-11-01T08:15:00.018Z,1002.2
2018-11-01T08:15:59.997Z,1002.21
2018-11-01T08:16:59.976Z,1002.25
2018-11-01T08:17:59.958Z,1002.23
2018-11-01T08:18:59.942Z,1002.3
2018-11-01T08:20:00.088Z,1002.31
2018-11-01T08:21:00.075Z,1002.33
2018-11-01T08:21:59.888Z,1002.29
2018-11-01T08:22:59.871Z,1002.34
2018-11-01T08:23:59.854Z,1002.32
2018-11-01T08:24:59.833Z,1002.31
2018-11-01T08:25:59.823Z,1002.31
2018-11-01T08:26:59.804Z,1002.3
2018-11-01T08:27:59.879Z,1002.3
2018-11-01T08:28:59.765Z,1002.31
2018-11-01T08:29:59.745Z,1002.33
2018-11-01T08:30:59.731Z,1002.3
2018-11-01T08:31:59.709Z,1002.29
2018-11-01T08:32:59.702Z,1002.32
2018-11-01T08:33:59.674Z,1002.32
2018-11-01T08:34:59.656Z,1002.31
2018-11-01T08:35:59.642Z,1002.24
2018-11-01T08:36:59.624Z,1002.22
2018-11-01T08:37:59.608Z,1002.23
2018-11-01T08:38:59.589Z,1002.24
2018-11-01T08:39:59.579Z,1002.18
2018-11-01T08:40:59.562Z,1002.16
2018-11-01T08:41:59.537Z,1002.17
2018-11-01T08:42:59.517Z,1002.15
2018-11-01T08:43:59.509Z,1002.15
2018-11-01T08:44:59.483Z,1002.11
2018-11-01T08:45:59.467Z,1002.07
2018-11-01T08:46:59.449Z,1002
2018-11-01T08:47:59.435Z,1002.02
2018-11-01T08:48:59.416Z,1002.04
2018-11-01T08:49:59.403Z,1002.02
2018-11-01T08:50:59.381Z,1001.99
2018-11-01T08:51:59.364Z,1002
2018-11-01T08:52:59.349Z,1001.97
2018-11-01T08:53:59.330Z,1001.96
2018-11-01T08:54:59.313Z,1001.97
2018-11-01T08:55:59.302Z,1001.95
2018-11-01T08:56:59.278Z,1001.96
2018-11-01T08:57:59.261Z,1001.95
2018-11-01T08:58:59.248Z,1001.92
2018-11-01T08:59:59.235Z,1001.9
2018-11-01T09:00:59.213Z,1001.86
2018-11-01T09:01:59.196Z,1001.86
2018-11-01T09:02:59.180Z,1001.8
2018-11-01T09:03:59.217Z,1001.83
2018-11-01T09:04:59.147Z,1001.82
2018-11-01T09:05:59.129Z,1001.78
2018-11-01T09:06:59.119Z,1001.78
2018-11-01T09:07:59.182Z,1001.78
2018-11-01T09:08:59.092Z,1001.75
2018-11-01T09:09:59.065Z,1001.82
2018-11-01T09:10:59.052Z,1001.8
2018-11-01T09:11:59.031Z,1001.89
2018-11-01T09:12:59.026Z,1001.86
2018-11-01T09:13:59.009Z,1001.86
2018-11-01T09:14:58.982Z,1001.83
2018-11-01T09:15:58.966Z,1001.85
2018-11-01T09:16:58.952Z,1001.86
2018-11-01T09:17:58.933Z,1001.84
2018-11-01T09:18:58.917Z,1001.85
2018-11-01T09:19:58.902Z,1001.88
2018-11-01T09:20:58.884Z,1001.87
2018-11-01T09:21:58.874Z,1001.91
2018-11-01T09:22:58.851Z,1001.88
2018-11-01T09:23:58.834Z,1001.9
2018-11-01T09:24:58.820Z,1001.88
2018-11-01T09:25:58.803Z,1001.91
2018-11-01T09:26:58.883Z,1001.94
2018-11-01T09:27:58.774Z,1001.93
2018-11-01T09:28:58.755Z,1001.92
2018-11-01T09:29:58.737Z,1001.99
2018-11-01T09:30:58.726Z,1002
2018-11-01T09:31:58.706Z,1002.02
2018-11-01T09:32:58.826Z,1002
2018-11-01T09:33:58.673Z,1001.98
2018-11-01T09:34:58.657Z,1002.02
2018-11-01T09:35:58.642Z,1002
2018-11-01T09:36:58.625Z,1002.02
2018-11-01T09:37:58.611Z,1002
2018-11-01T09:38:58.593Z,1001.99
2018-11-01T09:39:58.578Z,1001.98
2018-11-01T09:40:58.570Z,1001.98
2018-11-01T09:41:58.545Z,1001.96
2018-11-01T09:42:58.533Z,1001.95
2018-11-01T09:43:58.515Z,1001.89
2018-11-01T09:44:58.496Z,1001.93
2018-11-01T09:45:58.578Z,1001.9
2018-11-01T09:46:58.919Z,1001.92
2018-11-01T09:47:58.450Z,1001.89
2018-11-01T09:48:58.435Z,1001.94
2018-11-01T09:49:58.427Z,1001.92
2018-11-01T09:50:58.403Z,1001.92
2018-11-01T09:51:58.387Z,1001.89
2018-11-01T09:52:58.380Z,1001.89
2018-11-01T09:53:58.360Z,1001.83
2018-11-01T09:54:58.340Z,1001.87
2018-11-01T09:55:58.346Z,1001.81
2018-11-01T09:56:58.312Z,1001.83
2018-11-01T09:57:58.297Z,1001.84
2018-11-01T09:58:58.277Z,1001.82
2018-11-01T09:59:58.263Z,1001.86
2018-11-01T10:00:58.272Z,1001.88
2018-11-01T10:01:58.232Z,1001.85
2018-11-01T10:02:58.219Z,1001.86
2018-11-01T10:03:58.199Z,1001.82
2018-11-01T10:04:58.189Z,1001.86
2018-11-01T10:05:58.256Z,1001.82
2018-11-01T10:06:58.246Z,1001.8
2018-11-01T10:07:58.138Z,1001.82
2018-11-01T10:08:58.121Z,1001.81
2018-11-01T10:09:58.107Z,1001.77
2018-11-01T10:10:58.092Z,1001.77
2018-11-01T10:11:58.077Z,1001.78
2018-11-01T10:12:58.070Z,1001.81
2018-11-01T10:13:58.044Z,1001.81
2018-11-01T10:14:58.126Z,1001.84
2018-11-01T10:15:58.268Z,1001.92
2018-11-01T10:16:58.305Z,1001.97
2018-11-01T10:17:58.355Z,1001.99
2018-11-01T10:18:57.967Z,1001.99
2018-11-01T10:19:57.951Z,1002.01
2018-11-01T10:20:57.938Z,1002.09
2018-11-01T10:21:58.102Z,1002.11
2018-11-01T10:22:57.954Z,1002.07
2018-11-01T10:23:57.896Z,1002.09
2018-11-01T10:24:57.875Z,1002.06
2018-11-01T10:25:57.857Z,1002
2018-11-01T10:26:57.842Z,1001.99
2018-11-01T10:27:57.828Z,1001.95
2018-11-01T10:28:57.811Z,1001.88
2018-11-01T10:29:57.796Z,1001.86
2018-11-01T10:30:57.782Z,1001.85
2018-11-01T10:31:57.765Z,1001.84
2018-11-01T10:32:57.750Z,1001.82
2018-11-01T10:33:57.858Z,1001.83
2018-11-01T10:34:57.720Z,1001.82
2018-11-01T10:35:57.705Z,1001.85
2018-11-01T10:36:57.690Z,1001.86
2018-11-01T10:37:57.673Z,1001.87
2018-11-01T10:38:57.659Z,1001.87
2018-11-01T10:39:57.642Z,1001.85
2018-11-01T10:40:57.698Z,1001.81
2018-11-01T10:41:57.615Z,1001.81
2018-11-01T10:42:57.599Z,1001.83
2018-11-01T10:43:57.581Z,1001.81
2018-11-01T10:44:57.568Z,1001.87
2018-11-01T10:45:57.556Z,1001.86
2018-11-01T10:46:57.538Z,1001.82
2018-11-01T10:47:57.524Z,1001.81
2018-11-01T10:48:57.507Z,1001.8
2018-11-01T10:49:57.493Z,1001.76
2018-11-01T10:50:57.474Z,1001.73
2018-11-01T10:51:57.461Z,1001.71
2018-11-01T10:52:57.446Z,1001.7
2018-11-01T10:53:57.547Z,1001.66
2018-11-01T10:54:57.416Z,1001.65
2018-11-01T10:55:57.401Z,1001.68
2018-11-01T10:56:57.386Z,1001.67
2018-11-01T10:57:57.370Z,1001.64
2018-11-01T10:58:57.358Z,1001.65
2018-11-01T10:59:57.403Z,1001.63
2018-11-01T11:00:57.528Z,1001.67
2018-11-01T11:01:57.314Z,1001.64
2018-11-01T11:02:57.303Z,1001.65
2018-11-01T11:03:57.289Z,1001.72
2018-11-01T11:04:57.267Z,1001.75
2018-11-01T11:05:57.255Z,1001.82
2018-11-01T11:06:57.239Z,1001.82
2018-11-01T11:07:57.223Z,1001.84
2018-11-01T11:08:57.208Z,1001.82
2018-11-01T11:09:57.193Z,1001.81
2018-11-01T11:10:57.181Z,1001.83
2018-11-01T11:11:57.163Z,1001.76
2018-11-01T11:12:57.149Z,1001.77
2018-11-01T11:13:57.138Z,1001.73
2018-11-01T11:14:57.121Z,1001.74
2018-11-01T11:15:57.105Z,1001.77
2018-11-01T11:16:57.091Z,1001.73
2018-11-01T11:17:57.076Z,1001.73
2018-11-01T11:18:57.062Z,1001.76
2018-11-01T11:19:57.129Z,1001.73
2018-11-01T11:20:57.423Z,1001.74
2018-11-01T11:21:57.017Z,1001.71
2018-11-01T11:22:57.004Z,1001.68
2018-11-01T11:23:56.989Z,1001.68
2018-11-01T11:24:56.977Z,1001.66
2018-11-01T11:25:56.962Z,1001.61
2018-11-01T11:26:56.944Z,1001.6
2018-11-01T11:27:56.929Z,1001.53
2018-11-01T11:28:56.915Z,1001.57
2018-11-01T11:29:56.929Z,1001.53
2018-11-01T11:30:56.884Z,1001.54
2018-11-01T11:31:56.872Z,1001.52
2018-11-01T11:32:56.857Z,1001.54
2018-11-01T11:33:56.842Z,1001.55
2018-11-01T11:34:56.828Z,1001.48
2018-11-01T11:35:56.904Z,1001.5
2018-11-01T11:36:56.800Z,1001.49
2018-11-01T11:37:56.782Z,1001.45
2018-11-01T11:38:56.815Z,1001.46
2018-11-01T11:39:56.756Z,1001.4
2018-11-01T11:40:56.740Z,1001.35
2018-11-01T11:41:56.724Z,1001.31
2018-11-01T11:42:56.710Z,1001.27
2018-11-01T11:43:56.696Z,1001.26
2018-11-01T11:44:56.682Z,1001.24
2018-11-01T11:45:56.668Z,1001.22
2018-11-01T11:46:56.653Z,1001.22
2018-11-01T11:47:56.638Z,1001.18
2018-11-01T11:48:56.622Z,1001.19
2018-11-01T11:49:56.607Z,1001.17
2018-11-01T11:50:56.593Z,1001.11
2018-11-01T11:51:56.581Z,1001.09
2018-11-01T11:52:56.567Z,1001.07
2018-11-01T11:53:56.553Z,1001.02
2018-11-01T11:54:56.535Z,1001.02
2018-11-01T11:55:56.521Z,1001.07
2018-11-01T11:56:56.577Z,1001.06
2018-11-01T11:57:56.502Z,1001.04
2018-11-01T11:58:56.477Z,1001.01
2018-11-01T11:59:56.465Z,1000.98
2018-11-01T12:00:56.448Z,1001.01
2018-11-01T12:01:56.435Z,1000.99
2018-11-01T12:02:56.421Z,1000.93
2018-11-01T12:03:56.404Z,1000.9
2018-11-01T12:04:56.392Z,1000.87
2018-11-01T12:05:56.494Z,1000.93
2018-11-01T12:06:56.373Z,1000.89
2018-11-01T12:07:56.348Z,1000.87